Time;durP1;ratioP1;P1;durP2;ratioP2;P2;SDS_P1;SDS_P2;PMS_P1;PMS_P2;Temp;Humidity;BMP_temperature;BMP_pressure;BME280_temperature;BME280_humidity;BME280_pressure;Samples;Min_cycle;Max_cycle;Signal;HPM_P1;HPM_P2
2023/12/25 04:54:21;;;;;;;2.20;0.80;;;;;;;9.06;95.87;98249.23;108397;266;602738;-55
2023/12/25 04:57:01;;;;;;;2.90;0.80;;;;;;;8.85;96.81;98257.14;110697;250;39431;-55
2023/12/25 04:59:42;;;;;;;3.90;1.00;;;;;;;8.74;97.30;98260.66;110100;252;153586;-55
2023/12/25 05:02:20;;;;;;;3.20;0.90;;;;;;;8.67;97.87;98266.69;110873;246;39641;-58
2023/12/25 05:05:02;;;;;;;3.40;1.50;;;;;;;8.65;98.19;98263.51;110635;246;155460;-58
2023/12/25 05:07:40;;;;;;;4.40;1.40;;;;;;;8.65;98.43;98267.70;110741;246;151963;-53
2023/12/25 05:10:14;;;;;;;2.20;0.90;;;;;;;8.60;98.95;98263.77;110879;244;154939;-57
2023/12/25 05:12:57;;;;;;;3.40;1.00;;;;;;;8.58;99.37;98269.02;110982;245;39773;-58
2023/12/25 05:15:34;;;;;;;1.90;0.70;;;;;;;8.57;99.57;98273.75;110838;243;154526;-59
2023/12/25 05:18:10;;;;;;;3.20;1.00;;;;;;;8.56;99.67;98270.15;111003;245;40809;-58
2023/12/25 05:20:46;;;;;;;3.40;1.00;;;;;;;8.55;99.87;98270.66;111010;244;39920;-57
2023/12/25 05:23:24;;;;;;;2.50;1.00;;;;;;;8.53;99.88;98264.80;110848;242;153847;-63
2023/12/25 05:26:13;;;;;;;2.50;1.00;;;;;;;8.52;99.99;98260.77;110955;244;39100;-61
2023/12/25 05:28:52;;;;;;;2.90;0.90;;;;;;;8.53;100.00;98267.23;110846;245;153535;-57
2023/12/25 05:31:32;;;;;;;2.40;1.10;;;;;;;8.53;100.00;98263.45;110952;245;39606;-57
2023/12/25 05:34:13;;;;;;;3.90;1.40;;;;;;;8.53;100.00;98260.33;110801;242;154579;-58
2023/12/25 05:36:54;;;;;;;3.10;0.80;;;;;;;8.53;100.00;98257.14;110933;245;39765;-56
2023/12/25 05:39:36;;;;;;;2.20;0.90;;;;;;;8.51;100.00;98251.52;110862;242;155270;-56
2023/12/25 05:42:11;;;;;;;2.90;1.00;;;;;;;8.49;100.00;98261.08;110908;245;39529;-57
2023/12/25 05:44:49;;;;;;;2.50;1.10;;;;;;;8.47;100.00;98280.73;110951;245;40458;-58
2023/12/25 05:47:27;;;;;;;2.50;0.90;;;;;;;8.45;100.00;98281.78;110806;242;153969;-58
2023/12/25 05:50:03;;;;;;;2.30;0.90;;;;;;;8.44;100.00;98273.15;110956;245;39439;-57
2023/12/25 05:52:38;;;;;;;5.70;1.40;;;;;;;8.45;100.00;98275.56;110849;242;154083;-57
2023/12/25 05:55:25;;;;;;;2.70;0.70;;;;;;;8.45;100.00;98278.14;111004;245;39622;-58
2023/12/25 05:58:15;;;;;;;2.00;0.80;;;;;;;8.42;100.00;98286.12;110861;242;154257;-55
2023/12/25 06:00:55;;;;;;;2.60;0.70;;;;;;;8.38;100.00;98292.30;110971;245;39924;-56
2023/12/25 06:03:33;;;;;;;2.90;0.90;;;;;;;8.34;100.00;98287.84;110856;242;154504;-59
2023/12/25 06:06:09;;;;;;;1.60;0.70;;;;;;;8.34;100.00;98292.94;111021;245;39652;-61
2023/12/25 06:08:44;;;;;;;1.90;0.80;;;;;;;8.35;100.00;98293.50;111106;245;40057;-62
2023/12/25 06:11:21;;;;;;;;;;;;;;;8.30;100.00;98286.16;110866;242;154179;-62
2023/12/25 06:13:59;;;;;;;2.30;0.80;;;;;;;8.32;100.00;98281.20;111113;244;39818;-62
2023/12/25 06:16:35;;;;;;;1.60;0.80;;;;;;;8.34;100.00;98287.02;110916;245;153986;-58
2023/12/25 06:19:14;;;;;;;1.80;0.80;;;;;;;8.35;100.00;98296.19;111016;245;39987;-57
2023/12/25 06:21:53;;;;;;;2.50;0.70;;;;;;;8.35;100.00;98304.95;110890;245;154180;-58
2023/12/25 06:24:38;;;;;;;1.60;1.10;;;;;;;8.37;100.00;98313.60;111008;244;39518;-58
2023/12/25 06:27:17;;;;;;;1.80;1.10;;;;;;;8.37;100.00;98310.37;111075;245;39468;-55
2023/12/25 06:29:55;;;;;;;3.30;1.10;;;;;;;8.36;100.00;98304.58;110908;244;41073;-55
2023/12/25 06:32:40;;;;;;;2.80;1.00;;;;;;;8.38;100.00;98311.02;110983;244;40667;-59
2023/12/25 06:35:15;;;;;;;3.40;1.40;;;;;;;8.38;100.00;98314.20;110812;242;154060;-57
2023/12/25 06:37:54;;;;;;;2.70;1.00;;;;;;;8.40;100.00;98318.36;111091;243;40427;-57
2023/12/25 06:40:29;;;;;;;3.00;1.10;;;;;;;8.39;100.00;98323.70;110907;243;154507;-57
2023/12/25 06:43:06;;;;;;;2.40;1.20;;;;;;;8.37;100.00;98328.65;111008;244;39687;-57
2023/12/25 06:45:43;;;;;;;3.80;1.10;;;;;;;8.35;100.00;98338.28;110855;243;154179;-58
2023/12/25 06:48:23;;;;;;;3.70;1.20;;;;;;;8.31;100.00;98333.65;110958;244;38823;-57
2023/12/25 06:51:03;;;;;;;4.30;1.40;;;;;;;8.33;100.00;98332.51;110995;244;39843;-58
2023/12/25 06:53:41;;;;;;;3.50;1.20;;;;;;;8.34;100.00;98339.00;110836;244;154025;-55
2023/12/25 06:56:14;;;;;;;3.80;1.80;;;;;;;8.30;100.00;98338.33;110981;244;39908;-56
2023/12/25 06:58:54;;;;;;;3.40;1.30;;;;;;;8.29;100.00;98342.02;110876;243;154535;-58
2023/12/25 07:01:33;;;;;;;3.70;1.60;;;;;;;8.27;100.00;98347.88;111007;244;39183;-58
2023/12/25 07:04:17;;;;;;;4.50;1.30;;;;;;;8.27;100.00;98342.70;110823;244;155176;-58
2023/12/25 07:06:55;;;;;;;3.00;1.00;;;;;;;8.29;100.00;98325.09;110955;244;39421;-53
2023/12/25 07:09:29;;;;;;;5.60;1.20;;;;;;;8.34;100.00;98331.96;110810;244;153779;-57
2023/12/25 07:12:06;;;;;;;4.30;1.10;;;;;;;8.35;100.00;98329.94;110985;244;40647;-57
2023/12/25 07:14:45;;;;;;;4.20;1.30;;;;;;;8.32;100.00;98336.54;110959;244;40204;-58
2023/12/25 07:17:29;;;;;;;4.20;1.10;;;;;;;8.30;100.00;98338.50;110825;244;156089;-56
2023/12/25 07:20:09;;;;;;;3.20;1.50;;;;;;;8.34;100.00;98338.83;110898;244;39762;-57
2023/12/25 07:22:46;;;;;;;3.00;1.00;;;;;;;8.32;100.00;98338.02;110840;244;155333;-56
2023/12/25 07:25:24;;;;;;;5.20;1.10;;;;;;;8.30;100.00;98337.80;110969;244;38863;-57
2023/12/25 07:28:07;;;;;;;5.80;1.30;;;;;;;8.31;100.00;98346.06;110828;243;154077;-58
2023/12/25 07:30:43;;;;;;;4.00;1.40;;;;;;;8.31;100.00;98345.36;110984;244;39408;-57
2023/12/25 07:33:22;;;;;;;4.60;1.30;;;;;;;8.34;100.00;98347.06;110986;244;38985;-56
2023/12/25 07:36:02;;;;;;;3.90;1.10;;;;;;;8.34;100.00;98341.74;110914;244;41362;-56
2023/12/25 07:38:42;;;;;;;4.60;1.50;;;;;;;8.36;100.00;98341.20;110949;244;39950;-59
2023/12/25 07:41:17;;;;;;;3.80;1.20;;;;;;;8.37;100.00;98338.34;110839;243;154586;-57
2023/12/25 07:44:00;;;;;;;4.00;1.50;;;;;;;8.38;100.00;98342.30;111103;243;40900;-55
2023/12/25 07:46:40;;;;;;;4.30;1.30;;;;;;;8.38;100.00;98346.77;110913;242;155503;-58
2023/12/25 07:49:25;;;;;;;5.20;1.40;;;;;;;8.41;100.00;98346.47;110973;243;40465;-59
2023/12/25 07:52:04;;;;;;;2.50;1.10;;;;;;;8.40;100.00;98345.21;110908;243;155122;-56
